Antelope, KS

6:48 PM CDT on August 20, 2014 (GMT -0500)
Marshall Army Air Field | Change Station
CLOSE
Current Station
Airport
Location: Ft Riley,
Elevation: 1063 ft
Nearby Weather Stations

Elev 1063 ft 39.06 °N, 96.76 °W | Updated 50 minutes ago

Clear
Clear
94 °F
Feels Like 98 °F
N
16
Wind Variable Wind from South

Today
High -- | Low -- °F
--% Chance of Precip.
Yesterday
High -- | Low -- °F
Precip. -- in
6:46 AM 8:15 PM
Waning Crescent, 18% visible
Pressure 29.73 in
Visibility 10.0 miles
Clouds Clear
Heat Index 98 °F
Dew Point 67 °F
Humidity 41%
Rainfall 0.00 in
Snow Depth Not available.
UV 2 out of 12
Pollen 11.40 out of 12
Air Quality Not available.
Flu Activity Not available.
METAR KFRI 202258Z AUTO 19014KT 10SM CLR 35/20 A2977 RMK AO2 SLP067 T03470195

More Conditions Fewer Conditions

Pressure 29.73 in
Visibility 10.0 miles
Clouds Clear
Heat Index 98 °F
Dew Point 67 °F
Humidity 41%
Rainfall 0.00 in
Snow Depth Not available.
UV 2 out of 12
Pollen 11.40 out of 12
Air Quality Not available.
Flu Activity Not available.
METAR KFRI 202258Z AUTO 19014KT 10SM CLR 35/20 A2977 RMK AO2 SLP067 T03470195

More Conditions Fewer Conditions

10-Day Weather Forecast

Almanac

Astronomy

Aug. 20, 2014 Rise Set
Actual Time 6:46 AM CDT 8:15 PM CDT
Civil Twilight 6:18 AM CDT 8:42 PM CDT
Nautical Twilight 5:45 AM CDT 9:16 PM CDT
Astronomical Twilight 5:09 AM CDT 9:51 PM CDT
Moon 2:28 AM CDT 4:59 PM CDT
Length of Visible Light 14h 24m
Length of Day
13h 28m
Tomorrow will be 2m 17s shorter.
Waning Crescent, 18% of the Moon is Illuminated
Today
Waning Crescent
Aug 25
New
Sep 2
First Quarter
Sep 8
Full
Sep 15
Last Quarter

Today's Extremes

State Highs State Lows

Community

WunderPhotos

Upload Photos

1,745,801 photos uploaded!

Nearby

Snow Depth

Station Depth Elevation
No new snow has been reported.

Earthquake Activity

City Distance Mag. Time & Date
Medford, Oklahoma 123 miles 3.4 5:54 AM CDT
2014-08-16
Medford, Oklahoma 123 miles 2.5 7:09 AM CDT
2014-08-15
Helena, Oklahoma 146 miles 2.7 1:19 AM CDT
2014-08-14
Minimum magnitude displayed is 2.5.

Coastal Water Temperatures

Place Temperature
No Stations Reporting

Nearby Weather Stations